sensor_id;sensor_type;location;lat;lon;timestamp;temperature;humidity
15384;DHT22;7790;53.022;12.968;2024-01-15T00:03:02;22.60;42.90
15384;DHT22;7790;53.022;12.968;2024-01-15T00:07:03;22.60;42.70
15384;DHT22;7790;53.022;12.968;2024-01-15T00:11:04;22.60;42.30
15384;DHT22;7790;53.022;12.968;2024-01-15T00:15:05;22.60;42.40
15384;DHT22;7790;53.022;12.968;2024-01-15T00:19:06;22.50;42.40
15384;DHT22;7790;53.022;12.968;2024-01-15T00:23:07;22.60;42.70
15384;DHT22;7790;53.022;12.968;2024-01-15T00:27:08;22.60;42.30
15384;DHT22;7790;53.022;12.968;2024-01-15T00:31:09;22.50;42.50
15384;DHT22;7790;53.022;12.968;2024-01-15T00:35:10;22.50;42.40
15384;DHT22;7790;53.022;12.968;2024-01-15T00:39:11;22.50;42.60
15384;DHT22;7790;53.022;12.968;2024-01-15T00:43:12;22.50;42.40
15384;DHT22;7790;53.022;12.968;2024-01-15T00:47:13;22.50;42.30
15384;DHT22;7790;53.022;12.968;2024-01-15T00:51:13;22.60;42.20
15384;DHT22;7790;53.022;12.968;2024-01-15T00:55:14;22.50;42.20
15384;DHT22;7790;53.022;12.968;2024-01-15T00:59:15;22.60;42.20
15384;DHT22;7790;53.022;12.968;2024-01-15T01:03:16;22.60;42.10
15384;DHT22;7790;53.022;12.968;2024-01-15T01:07:17;22.60;42.30
15384;DHT22;7790;53.022;12.968;2024-01-15T01:11:17;22.60;42.60
15384;DHT22;7790;53.022;12.968;2024-01-15T01:15:19;22.60;42.10
15384;DHT22;7790;53.022;12.968;2024-01-15T01:19:20;22.50;41.90
15384;DHT22;7790;53.022;12.968;2024-01-15T01:23:21;22.50;42.40
15384;DHT22;7790;53.022;12.968;2024-01-15T01:27:22;22.60;41.80
15384;DHT22;7790;53.022;12.968;2024-01-15T01:31:23;22.60;41.70
15384;DHT22;7790;53.022;12.968;2024-01-15T01:35:24;22.60;41.60
15384;DHT22;7790;53.022;12.968;2024-01-15T01:39:25;22.60;41.70
15384;DHT22;7790;53.022;12.968;2024-01-15T01:43:26;22.60;41.60
15384;DHT22;7790;53.022;12.968;2024-01-15T01:47:27;22.60;41.50
15384;DHT22;7790;53.022;12.968;2024-01-15T01:51:28;22.60;41.40
15384;DHT22;7790;53.022;12.968;2024-01-15T01:55:29;22.60;41.50
15384;DHT22;7790;53.022;12.968;2024-01-15T01:59:33;22.60;41.60
15384;DHT22;7790;53.022;12.968;2024-01-15T02:03:36;22.60;41.40
15384;DHT22;7790;53.022;12.968;2024-01-15T02:07:37;22.60;41.30
15384;DHT22;7790;53.022;12.968;2024-01-15T02:11:38;22.60;41.10
15384;DHT22;7790;53.022;12.968;2024-01-15T02:15:38;22.60;41.10
15384;DHT22;7790;53.022;12.968;2024-01-15T02:19:40;22.60;41.30
15384;DHT22;7790;53.022;12.968;2024-01-15T02:23:41;22.60;41.00
15384;DHT22;7790;53.022;12.968;2024-01-15T02:27:43;22.70;41.00
15384;DHT22;7790;53.022;12.968;2024-01-15T02:31:44;22.70;41.20
15384;DHT22;7790;53.022;12.968;2024-01-15T02:35:45;22.70;41.00
15384;DHT22;7790;53.022;12.968;2024-01-15T02:39:47;22.70;40.80
15384;DHT22;7790;53.022;12.968;2024-01-15T02:43:47;22.70;40.90
15384;DHT22;7790;53.022;12.968;2024-01-15T02:47:49;22.70;40.80
15384;DHT22;7790;53.022;12.968;2024-01-15T02:51:49;22.70;40.90
15384;DHT22;7790;53.022;12.968;2024-01-15T02:55:50;22.60;40.80
15384;DHT22;7790;53.022;12.968;2024-01-15T02:59:51;22.60;41.40
15384;DHT22;7790;53.022;12.968;2024-01-15T03:03:52;22.60;40.70
15384;DHT22;7790;53.022;12.968;2024-01-15T03:07:53;22.70;40.60
15384;DHT22;7790;53.022;12.968;2024-01-15T03:11:54;22.60;40.60
15384;DHT22;7790;53.022;12.968;2024-01-15T03:15:55;22.70;41.10
15384;DHT22;7790;53.022;12.968;2024-01-15T03:19:55;22.90;40.20
15384;DHT22;7790;53.022;12.968;2024-01-15T03:23:56;23.00;40.10
15384;DHT22;7790;53.022;12.968;2024-01-15T03:27:57;23.10;39.80
15384;DHT22;7790;53.022;12.968;2024-01-15T03:31:58;23.10;39.80
15384;DHT22;7790;53.022;12.968;2024-01-15T03:35:59;23.20;39.60
15384;DHT22;7790;53.022;12.968;2024-01-15T03:40:00;23.20;39.50
15384;DHT22;7790;53.022;12.968;2024-01-15T03:44:01;23.20;39.50
15384;DHT22;7790;53.022;12.968;2024-01-15T03:48:02;23.20;39.40
15384;DHT22;7790;53.022;12.968;2024-01-15T03:52:03;23.20;39.60
15384;DHT22;7790;53.022;12.968;2024-01-15T03:56:04;23.20;39.50
15384;DHT22;7790;53.022;12.968;2024-01-15T04:00:05;23.20;39.40
15384;DHT22;7790;53.022;12.968;2024-01-15T04:04:06;23.20;39.30
15384;DHT22;7790;53.022;12.968;2024-01-15T04:08:07;23.20;39.10
15384;DHT22;7790;53.022;12.968;2024-01-15T04:12:08;23.20;39.20
15384;DHT22;7790;53.022;12.968;2024-01-15T04:16:09;23.30;39.30
15384;DHT22;7790;53.022;12.968;2024-01-15T04:20:10;23.20;39.10
15384;DHT22;7790;53.022;12.968;2024-01-15T04:24:11;23.30;39.10
15384;DHT22;7790;53.022;12.968;2024-01-15T04:28:12;23.30;39.10
15384;DHT22;7790;53.022;12.968;2024-01-15T04:32:13;22.90;40.20
15384;DHT22;7790;53.022;12.968;2024-01-15T04:36:14;22.70;39.80
15384;DHT22;7790;53.022;12.968;2024-01-15T04:40:15;22.50;39.70
15384;DHT22;7790;53.022;12.968;2024-01-15T04:44:16;22.50;39.40
15384;DHT22;7790;53.022;12.968;2024-01-15T04:48:16;22.80;39.90
15384;DHT22;7790;53.022;12.968;2024-01-15T04:52:17;23.00;39.30
15384;DHT22;7790;53.022;12.968;2024-01-15T04:56:18;22.90;39.10
15384;DHT22;7790;53.022;12.968;2024-01-15T05:00:19;22.80;39.40
15384;DHT22;7790;53.022;12.968;2024-01-15T05:04:20;22.70;39.50
15384;DHT22;7790;53.022;12.968;2024-01-15T05:08:21;22.60;39.50
15384;DHT22;7790;53.022;12.968;2024-01-15T05:12:22;22.50;39.70
15384;DHT22;7790;53.022;12.968;2024-01-15T05:16:23;22.40;39.80
15384;DHT22;7790;53.022;12.968;2024-01-15T05:20:24;22.50;39.60
15384;DHT22;7790;53.022;12.968;2024-01-15T05:24:25;22.50;39.60
15384;DHT22;7790;53.022;12.968;2024-01-15T05:28:27;22.60;39.40
15384;DHT22;7790;53.022;12.968;2024-01-15T05:32:27;22.60;39.30
15384;DHT22;7790;53.022;12.968;2024-01-15T05:36:28;22.70;39.30
15384;DHT22;7790;53.022;12.968;2024-01-15T05:40:29;22.70;39.40
15384;DHT22;7790;53.022;12.968;2024-01-15T05:44:30;22.60;39.50
15384;DHT22;7790;53.022;12.968;2024-01-15T05:48:30;22.70;39.40
15384;DHT22;7790;53.022;12.968;2024-01-15T05:52:31;22.60;39.40
15384;DHT22;7790;53.022;12.968;2024-01-15T05:56:32;22.70;39.30
15384;DHT22;7790;53.022;12.968;2024-01-15T06:00:33;22.70;39.40
15384;DHT22;7790;53.022;12.968;2024-01-15T06:04:36;22.70;39.30
15384;DHT22;7790;53.022;12.968;2024-01-15T06:08:37;22.70;39.20
15384;DHT22;7790;53.022;12.968;2024-01-15T06:12:38;22.80;39.30
15384;DHT22;7790;53.022;12.968;2024-01-15T06:16:39;22.70;39.10
15384;DHT22;7790;53.022;12.968;2024-01-15T06:20:40;22.70;39.10
15384;DHT22;7790;53.022;12.968;2024-01-15T06:24:41;22.70;39.00
15384;DHT22;7790;53.022;12.968;2024-01-15T06:28:42;22.80;39.10
15384;DHT22;7790;53.022;12.968;2024-01-15T06:32:43;22.70;39.00
15384;DHT22;7790;53.022;12.968;2024-01-15T06:36:43;22.70;39.10
15384;DHT22;7790;53.022;12.968;2024-01-15T06:40:44;22.70;39.10
15384;DHT22;7790;53.022;12.968;2024-01-15T06:44:46;22.70;39.10
15384;DHT22;7790;53.022;12.968;2024-01-15T06:48:47;22.70;39.00
15384;DHT22;7790;53.022;12.968;2024-01-15T06:52:47;22.70;39.00
15384;DHT22;7790;53.022;12.968;2024-01-15T06:56:48;22.60;38.80
15384;DHT22;7790;53.022;12.968;2024-01-15T07:00:49;22.70;38.90
15384;DHT22;7790;53.022;12.968;2024-01-15T07:04:50;22.70;38.90
15384;DHT22;7790;53.022;12.968;2024-01-15T07:08:50;22.60;39.00
15384;DHT22;7790;53.022;12.968;2024-01-15T07:12:52;22.90;38.80
15384;DHT22;7790;53.022;12.968;2024-01-15T07:16:53;22.80;38.90
15384;DHT22;7790;53.022;12.968;2024-01-15T07:20:54;22.80;38.90
15384;DHT22;7790;53.022;12.968;2024-01-15T07:24:55;22.80;39.00
15384;DHT22;7790;53.022;12.968;2024-01-15T07:28:55;22.80;38.80
15384;DHT22;7790;53.022;12.968;2024-01-15T07:32:56;22.90;38.80
15384;DHT22;7790;53.022;12.968;2024-01-15T07:36:57;22.90;38.70
15384;DHT22;7790;53.022;12.968;2024-01-15T07:40:58;22.90;38.70
15384;DHT22;7790;53.022;12.968;2024-01-15T07:45:00;23.00;38.70
15384;DHT22;7790;53.022;12.968;2024-01-15T07:49:01;22.90;38.60
15384;DHT22;7790;53.022;12.968;2024-01-15T07:53:02;23.00;38.70
15384;DHT22;7790;53.022;12.968;2024-01-15T07:57:03;22.70;38.50
15384;DHT22;7790;53.022;12.968;2024-01-15T08:01:04;22.80;38.60
15384;DHT22;7790;53.022;12.968;2024-01-15T08:05:05;22.80;38.50
15384;DHT22;7790;53.022;12.968;2024-01-15T08:09:06;22.80;38.50
15384;DHT22;7790;53.022;12.968;2024-01-15T08:13:07;22.80;38.60
15384;DHT22;7790;53.022;12.968;2024-01-15T08:17:09;22.90;38.60
15384;DHT22;7790;53.022;12.968;2024-01-15T08:21:10;22.90;38.60
15384;DHT22;7790;53.022;12.968;2024-01-15T08:25:11;22.90;38.60
15384;DHT22;7790;53.022;12.968;2024-01-15T08:29:13;22.90;38.70
15384;DHT22;7790;53.022;12.968;2024-01-15T08:33:14;22.90;38.60
15384;DHT22;7790;53.022;12.968;2024-01-15T08:37:15;23.10;38.40
15384;DHT22;7790;53.022;12.968;2024-01-15T08:41:15;22.90;38.50
15384;DHT22;7790;53.022;12.968;2024-01-15T08:45:16;22.90;38.50
15384;DHT22;7790;53.022;12.968;2024-01-15T08:49:17;22.90;38.50
15384;DHT22;7790;53.022;12.968;2024-01-15T08:53:18;22.90;38.50
15384;DHT22;7790;53.022;12.968;2024-01-15T08:57:19;22.90;38.50
15384;DHT22;7790;53.022;12.968;2024-01-15T09:01:20;23.00;38.50
15384;DHT22;7790;53.022;12.968;2024-01-15T09:05:21;23.00;38.50
15384;DHT22;7790;53.022;12.968;2024-01-15T09:09:21;22.90;38.40
15384;DHT22;7790;53.022;12.968;2024-01-15T09:13:22;22.90;38.60
15384;DHT22;7790;53.022;12.968;2024-01-15T09:17:23;22.90;38.50
15384;DHT22;7790;53.022;12.968;2024-01-15T09:21:24;22.90;38.50
15384;DHT22;7790;53.022;12.968;2024-01-15T09:25:25;22.90;38.50
15384;DHT22;7790;53.022;12.968;2024-01-15T09:29:26;22.90;38.50
15384;DHT22;7790;53.022;12.968;2024-01-15T09:33:26;22.90;38.60
15384;DHT22;7790;53.022;12.968;2024-01-15T09:37:27;22.90;38.50
15384;DHT22;7790;53.022;12.968;2024-01-15T09:41:28;22.90;38.50
15384;DHT22;7790;53.022;12.968;2024-01-15T09:45:29;22.90;38.50
15384;DHT22;7790;53.022;12.968;2024-01-15T09:49:31;22.90;38.50
15384;DHT22;7790;53.022;12.968;2024-01-15T09:53:33;22.90;38.50
15384;DHT22;7790;53.022;12.968;2024-01-15T09:57:34;22.90;38.50
15384;DHT22;7790;53.022;12.968;2024-01-15T10:01:36;22.90;38.50
15384;DHT22;7790;53.022;12.968;2024-01-15T10:05:39;22.90;38.50
15384;DHT22;7790;53.022;12.968;2024-01-15T10:09:40;22.90;38.90
15384;DHT22;7790;53.022;12.968;2024-01-15T10:13:40;23.00;38.50
15384;DHT22;7790;53.022;12.968;2024-01-15T10:17:42;22.90;38.50
15384;DHT22;7790;53.022;12.968;2024-01-15T10:21:43;22.90;38.50
15384;DHT22;7790;53.022;12.968;2024-01-15T10:25:43;22.90;38.50
15384;DHT22;7790;53.022;12.968;2024-01-15T10:29:44;22.90;38.40
15384;DHT22;7790;53.022;12.968;2024-01-15T10:33:45;22.90;38.50
15384;DHT22;7790;53.022;12.968;2024-01-15T10:37:47;22.90;38.50
15384;DHT22;7790;53.022;12.968;2024-01-15T10:41:48;22.90;38.50
15384;DHT22;7790;53.022;12.968;2024-01-15T10:45:50;22.90;38.50
15384;DHT22;7790;53.022;12.968;2024-01-15T10:49:52;22.90;38.50
15384;DHT22;7790;53.022;12.968;2024-01-15T10:53:55;22.90;38.50
15384;DHT22;7790;53.022;12.968;2024-01-15T10:57:58;22.90;38.50
15384;DHT22;7790;53.022;12.968;2024-01-15T11:02:00;23.00;38.60
15384;DHT22;7790;53.022;12.968;2024-01-15T11:06:01;23.00;39.10
15384;DHT22;7790;53.022;12.968;2024-01-15T11:10:04;23.00;38.60
15384;DHT22;7790;53.022;12.968;2024-01-15T11:14:04;23.00;38.60
15384;DHT22;7790;53.022;12.968;2024-01-15T11:18:09;23.00;38.60
15384;DHT22;7790;53.022;12.968;2024-01-15T11:30:38;23.00;38.50
15384;DHT22;7790;53.022;12.968;2024-01-15T11:34:56;23.10;38.50
15384;DHT22;7790;53.022;12.968;2024-01-15T11:38:58;23.00;38.50
15384;DHT22;7790;53.022;12.968;2024-01-15T11:42:59;23.00;38.50
15384;DHT22;7790;53.022;12.968;2024-01-15T11:47:08;23.00;38.50
15384;DHT22;7790;53.022;12.968;2024-01-15T11:51:12;23.00;38.60
15384;DHT22;7790;53.022;12.968;2024-01-15T11:55:26;23.00;38.50
15384;DHT22;7790;53.022;12.968;2024-01-15T11:59:29;23.00;38.60
15384;DHT22;7790;53.022;12.968;2024-01-15T12:03:32;23.00;38.60
15384;DHT22;7790;53.022;12.968;2024-01-15T12:07:34;23.00;38.60
15384;DHT22;7790;53.022;12.968;2024-01-15T12:11:36;23.00;38.50
15384;DHT22;7790;53.022;12.968;2024-01-15T12:15:41;23.00;38.50
15384;DHT22;7790;53.022;12.968;2024-01-15T12:19:43;23.00;38.50
15384;DHT22;7790;53.022;12.968;2024-01-15T12:23:46;23.00;38.40
15384;DHT22;7790;53.022;12.968;2024-01-15T12:27:49;23.00;38.40
15384;DHT22;7790;53.022;12.968;2024-01-15T12:31:50;23.10;38.40
15384;DHT22;7790;53.022;12.968;2024-01-15T12:35:55;23.00;38.30
15384;DHT22;7790;53.022;12.968;2024-01-15T12:39:56;23.10;38.30
15384;DHT22;7790;53.022;12.968;2024-01-15T12:43:56;23.10;38.20
15384;DHT22;7790;53.022;12.968;2024-01-15T12:47:58;23.10;38.20
15384;DHT22;7790;53.022;12.968;2024-01-15T12:51:59;23.00;38.10
15384;DHT22;7790;53.022;12.968;2024-01-15T12:56:00;23.10;38.10
15384;DHT22;7790;53.022;12.968;2024-01-15T13:00:02;23.10;38.10
15384;DHT22;7790;53.022;12.968;2024-01-15T13:04:07;23.10;38.20
15384;DHT22;7790;53.022;12.968;2024-01-15T13:08:09;23.00;38.20
15384;DHT22;7790;53.022;12.968;2024-01-15T13:12:10;23.10;38.10
15384;DHT22;7790;53.022;12.968;2024-01-15T13:16:12;23.00;38.20
15384;DHT22;7790;53.022;12.968;2024-01-15T13:20:13;23.20;38.00
15384;DHT22;7790;53.022;12.968;2024-01-15T13:24:13;23.20;37.90
15384;DHT22;7790;53.022;12.968;2024-01-15T13:28:14;23.00;38.10
15384;DHT22;7790;53.022;12.968;2024-01-15T13:32:24;22.90;38.80
15384;DHT22;7790;53.022;12.968;2024-01-15T13:36:27;22.90;38.20
15384;DHT22;7790;53.022;12.968;2024-01-15T13:40:28;22.90;38.20
15384;DHT22;7790;53.022;12.968;2024-01-15T13:44:28;22.90;38.20
15384;DHT22;7790;53.022;12.968;2024-01-15T13:48:29;22.90;38.10
15384;DHT22;7790;53.022;12.968;2024-01-15T13:52:30;23.00;38.20
15384;DHT22;7790;53.022;12.968;2024-01-15T13:56:31;22.90;38.20
15384;DHT22;7790;53.022;12.968;2024-01-15T14:00:36;22.90;38.30
15384;DHT22;7790;53.022;12.968;2024-01-15T14:04:38;22.90;38.20
15384;DHT22;7790;53.022;12.968;2024-01-15T14:08:39;23.00;38.30
15384;DHT22;7790;53.022;12.968;2024-01-15T14:12:40;22.90;38.30
15384;DHT22;7790;53.022;12.968;2024-01-15T14:16:42;22.90;38.30
15384;DHT22;7790;53.022;12.968;2024-01-15T14:20:43;22.90;38.30
15384;DHT22;7790;53.022;12.968;2024-01-15T14:24:44;22.90;38.30
15384;DHT22;7790;53.022;12.968;2024-01-15T14:28:45;22.90;38.40
15384;DHT22;7790;53.022;12.968;2024-01-15T14:32:46;22.90;38.50
15384;DHT22;7790;53.022;12.968;2024-01-15T14:36:47;22.90;38.40
15384;DHT22;7790;53.022;12.968;2024-01-15T14:40:50;22.90;38.50
15384;DHT22;7790;53.022;12.968;2024-01-15T14:44:51;22.90;38.50
15384;DHT22;7790;53.022;12.968;2024-01-15T14:48:51;22.90;38.50
15384;DHT22;7790;53.022;12.968;2024-01-15T14:52:52;22.90;38.50
15384;DHT22;7790;53.022;12.968;2024-01-15T14:56:54;22.90;38.50
15384;DHT22;7790;53.022;12.968;2024-01-15T15:00:57;22.90;38.50
15384;DHT22;7790;53.022;12.968;2024-01-15T15:04:58;22.90;38.50
15384;DHT22;7790;53.022;12.968;2024-01-15T15:09:00;22.90;38.40
15384;DHT22;7790;53.022;12.968;2024-01-15T15:13:01;22.90;38.40
15384;DHT22;7790;53.022;12.968;2024-01-15T15:17:04;23.00;38.40
15384;DHT22;7790;53.022;12.968;2024-01-15T15:21:04;22.90;38.40
15384;DHT22;7790;53.022;12.968;2024-01-15T15:25:05;23.00;38.30
15384;DHT22;7790;53.022;12.968;2024-01-15T15:29:09;23.10;38.30
15384;DHT22;7790;53.022;12.968;2024-01-15T15:33:09;23.00;38.30
15384;DHT22;7790;53.022;12.968;2024-01-15T15:37:11;22.90;38.30
15384;DHT22;7790;53.022;12.968;2024-01-15T15:41:12;22.90;38.40
15384;DHT22;7790;53.022;12.968;2024-01-15T15:45:13;22.90;38.30
15384;DHT22;7790;53.022;12.968;2024-01-15T15:49:14;23.00;38.40
15384;DHT22;7790;53.022;12.968;2024-01-15T15:53:48;23.00;38.30
15384;DHT22;7790;53.022;12.968;2024-01-15T15:57:50;23.00;38.40
15384;DHT22;7790;53.022;12.968;2024-01-15T16:01:52;22.20;35.00
15384;DHT22;7790;53.022;12.968;2024-01-15T16:05:53;22.00;37.50
15384;DHT22;7790;53.022;12.968;2024-01-15T16:09:54;22.50;37.80
15384;DHT22;7790;53.022;12.968;2024-01-15T16:13:55;22.80;37.60
15384;DHT22;7790;53.022;12.968;2024-01-15T16:17:56;22.90;37.50
15384;DHT22;7790;53.022;12.968;2024-01-15T16:21:57;23.00;37.50
15384;DHT22;7790;53.022;12.968;2024-01-15T16:25:58;23.20;37.60
15384;DHT22;7790;53.022;12.968;2024-01-15T16:29:59;23.30;37.70
15384;DHT22;7790;53.022;12.968;2024-01-15T16:34:00;23.30;37.90
15384;DHT22;7790;53.022;12.968;2024-01-15T16:38:01;23.30;37.90
15384;DHT22;7790;53.022;12.968;2024-01-15T16:42:01;23.30;38.00
15384;DHT22;7790;53.022;12.968;2024-01-15T16:46:02;23.30;38.10
15384;DHT22;7790;53.022;12.968;2024-01-15T16:50:04;23.30;38.20
15384;DHT22;7790;53.022;12.968;2024-01-15T16:54:05;23.20;38.20
15384;DHT22;7790;53.022;12.968;2024-01-15T16:58:06;23.10;38.20
15384;DHT22;7790;53.022;12.968;2024-01-15T17:02:06;23.20;38.10
15384;DHT22;7790;53.022;12.968;2024-01-15T17:06:08;23.10;38.70
15384;DHT22;7790;53.022;12.968;2024-01-15T17:10:09;23.10;38.30
15384;DHT22;7790;53.022;12.968;2024-01-15T17:14:10;23.00;38.20
15384;DHT22;7790;53.022;12.968;2024-01-15T17:18:11;23.00;38.20
15384;DHT22;7790;53.022;12.968;2024-01-15T17:22:12;23.00;38.30
15384;DHT22;7790;53.022;12.968;2024-01-15T17:26:12;23.00;38.30
15384;DHT22;7790;53.022;12.968;2024-01-15T17:30:14;23.00;38.30
15384;DHT22;7790;53.022;12.968;2024-01-15T17:34:15;23.00;38.40
15384;DHT22;7790;53.022;12.968;2024-01-15T17:38:16;23.00;38.40
15384;DHT22;7790;53.022;12.968;2024-01-15T17:42:17;23.10;38.70
15384;DHT22;7790;53.022;12.968;2024-01-15T17:46:18;23.00;38.60
15384;DHT22;7790;53.022;12.968;2024-01-15T17:50:19;23.00;38.80
15384;DHT22;7790;53.022;12.968;2024-01-15T17:54:20;23.00;38.70
15384;DHT22;7790;53.022;12.968;2024-01-15T17:58:21;23.00;38.60
15384;DHT22;7790;53.022;12.968;2024-01-15T18:02:22;23.00;38.50
15384;DHT22;7790;53.022;12.968;2024-01-15T18:06:23;23.00;38.60
15384;DHT22;7790;53.022;12.968;2024-01-15T18:10:24;23.00;38.70
15384;DHT22;7790;53.022;12.968;2024-01-15T18:14:25;23.00;38.60
15384;DHT22;7790;53.022;12.968;2024-01-15T18:18:26;23.00;38.60
15384;DHT22;7790;53.022;12.968;2024-01-15T18:22:27;23.00;38.60
15384;DHT22;7790;53.022;12.968;2024-01-15T18:26:27;23.00;38.60
15384;DHT22;7790;53.022;12.968;2024-01-15T18:30:28;23.00;38.60
15384;DHT22;7790;53.022;12.968;2024-01-15T18:34:29;23.00;38.50
15384;DHT22;7790;53.022;12.968;2024-01-15T18:38:30;22.90;38.30
15384;DHT22;7790;53.022;12.968;2024-01-15T18:42:31;23.00;38.30
15384;DHT22;7790;53.022;12.968;2024-01-15T18:46:32;23.20;38.00
15384;DHT22;7790;53.022;12.968;2024-01-15T18:50:33;23.30;37.90
15384;DHT22;7790;53.022;12.968;2024-01-15T18:54:34;23.30;37.70
15384;DHT22;7790;53.022;12.968;2024-01-15T18:58:35;23.40;37.60
15384;DHT22;7790;53.022;12.968;2024-01-15T19:02:42;23.60;37.40
15384;DHT22;7790;53.022;12.968;2024-01-15T19:06:43;23.50;37.40
15384;DHT22;7790;53.022;12.968;2024-01-15T19:10:44;23.80;37.00
15384;DHT22;7790;53.022;12.968;2024-01-15T19:14:45;23.80;36.80
15384;DHT22;7790;53.022;12.968;2024-01-15T19:18:45;23.60;37.00
15384;DHT22;7790;53.022;12.968;2024-01-15T19:22:47;23.60;36.70
15384;DHT22;7790;53.022;12.968;2024-01-15T19:26:48;23.40;37.00
15384;DHT22;7790;53.022;12.968;2024-01-15T19:30:49;23.30;37.20
15384;DHT22;7790;53.022;12.968;2024-01-15T19:34:50;23.40;37.00
15384;DHT22;7790;53.022;12.968;2024-01-15T19:38:52;23.40;37.00
15384;DHT22;7790;53.022;12.968;2024-01-15T19:42:56;23.40;37.10
15384;DHT22;7790;53.022;12.968;2024-01-15T19:46:58;23.30;37.00
15384;DHT22;7790;53.022;12.968;2024-01-15T19:50:58;23.40;36.90
15384;DHT22;7790;53.022;12.968;2024-01-15T19:54:59;23.50;36.90
15384;DHT22;7790;53.022;12.968;2024-01-15T19:59:00;23.50;37.00
15384;DHT22;7790;53.022;12.968;2024-01-15T20:03:01;23.40;37.00
15384;DHT22;7790;53.022;12.968;2024-01-15T20:07:03;23.20;38.90
15384;DHT22;7790;53.022;12.968;2024-01-15T20:11:03;23.00;39.30
15384;DHT22;7790;53.022;12.968;2024-01-15T20:15:05;22.90;39.30
15384;DHT22;7790;53.022;12.968;2024-01-15T20:19:06;22.90;39.20
15384;DHT22;7790;53.022;12.968;2024-01-15T20:23:07;22.90;39.00
15384;DHT22;7790;53.022;12.968;2024-01-15T20:27:09;22.90;39.20
15384;DHT22;7790;53.022;12.968;2024-01-15T20:31:10;22.90;39.00
15384;DHT22;7790;53.022;12.968;2024-01-15T20:35:11;22.90;39.10
15384;DHT22;7790;53.022;12.968;2024-01-15T20:39:12;22.90;38.80
15384;DHT22;7790;53.022;12.968;2024-01-15T20:43:13;22.90;38.50
15384;DHT22;7790;53.022;12.968;2024-01-15T20:47:13;22.90;38.70
15384;DHT22;7790;53.022;12.968;2024-01-15T20:51:14;22.80;38.60
15384;DHT22;7790;53.022;12.968;2024-01-15T20:55:15;22.80;38.60
15384;DHT22;7790;53.022;12.968;2024-01-15T20:59:17;22.80;38.40
15384;DHT22;7790;53.022;12.968;2024-01-15T21:03:18;22.80;38.50
15384;DHT22;7790;53.022;12.968;2024-01-15T21:07:18;22.80;38.50
15384;DHT22;7790;53.022;12.968;2024-01-15T21:11:19;22.70;38.40
15384;DHT22;7790;53.022;12.968;2024-01-15T21:15:20;22.70;38.30
15384;DHT22;7790;53.022;12.968;2024-01-15T21:19:21;22.70;38.20
15384;DHT22;7790;53.022;12.968;2024-01-15T21:23:22;22.70;38.10
15384;DHT22;7790;53.022;12.968;2024-01-15T21:27:23;22.80;38.10
15384;DHT22;7790;53.022;12.968;2024-01-15T21:31:24;22.80;38.00
15384;DHT22;7790;53.022;12.968;2024-01-15T21:35:25;22.80;37.70
15384;DHT22;7790;53.022;12.968;2024-01-15T21:39:26;22.70;37.60
15384;DHT22;7790;53.022;12.968;2024-01-15T21:43:26;22.80;37.80
15384;DHT22;7790;53.022;12.968;2024-01-15T21:47:27;22.80;37.70
15384;DHT22;7790;53.022;12.968;2024-01-15T21:51:29;22.70;37.70
15384;DHT22;7790;53.022;12.968;2024-01-15T21:55:29;22.70;37.50
15384;DHT22;7790;53.022;12.968;2024-01-15T21:59:30;22.80;37.60
15384;DHT22;7790;53.022;12.968;2024-01-15T22:03:31;22.70;37.50
15384;DHT22;7790;53.022;12.968;2024-01-15T22:07:32;22.70;37.60
15384;DHT22;7790;53.022;12.968;2024-01-15T22:11:33;22.70;38.00
15384;DHT22;7790;53.022;12.968;2024-01-15T22:15:34;22.70;37.30
15384;DHT22;7790;53.022;12.968;2024-01-15T22:19:35;22.70;37.30
15384;DHT22;7790;53.022;12.968;2024-01-15T22:23:36;22.60;37.40
15384;DHT22;7790;53.022;12.968;2024-01-15T22:27:36;22.70;37.80
15384;DHT22;7790;53.022;12.968;2024-01-15T22:31:37;22.70;37.40
15384;DHT22;7790;53.022;12.968;2024-01-15T22:35:38;22.70;37.40
15384;DHT22;7790;53.022;12.968;2024-01-15T22:39:39;22.60;37.30
15384;DHT22;7790;53.022;12.968;2024-01-15T22:43:40;22.70;37.20
15384;DHT22;7790;53.022;12.968;2024-01-15T22:47:41;22.70;37.30
15384;DHT22;7790;53.022;12.968;2024-01-15T22:51:41;22.60;37.20
15384;DHT22;7790;53.022;12.968;2024-01-15T22:55:42;22.70;37.10
15384;DHT22;7790;53.022;12.968;2024-01-15T22:59:43;22.70;37.00
15384;DHT22;7790;53.022;12.968;2024-01-15T23:03:44;22.70;37.00
15384;DHT22;7790;53.022;12.968;2024-01-15T23:07:45;22.70;36.90
15384;DHT22;7790;53.022;12.968;2024-01-15T23:11:47;22.70;37.00
15384;DHT22;7790;53.022;12.968;2024-01-15T23:15:47;22.70;37.00
15384;DHT22;7790;53.022;12.968;2024-01-15T23:19:48;22.70;37.00
15384;DHT22;7790;53.022;12.968;2024-01-15T23:23:49;22.70;36.90
15384;DHT22;7790;53.022;12.968;2024-01-15T23:27:50;22.70;36.80
15384;DHT22;7790;53.022;12.968;2024-01-15T23:31:52;22.60;36.90
15384;DHT22;7790;53.022;12.968;2024-01-15T23:35:53;22.70;36.90
15384;DHT22;7790;53.022;12.968;2024-01-15T23:39:53;22.70;36.80
15384;DHT22;7790;53.022;12.968;2024-01-15T23:43:54;22.70;36.80
15384;DHT22;7790;53.022;12.968;2024-01-15T23:47:55;22.70;36.70
15384;DHT22;7790;53.022;12.968;2024-01-15T23:51:56;22.70;36.70
15384;DHT22;7790;53.022;12.968;2024-01-15T23:55:57;22.70;36.60
15384;DHT22;7790;53.022;12.968;2024-01-15T23:59:58;22.70;36.60
